createdAt,value
2022-07-25T00:00:58.977Z,21.09
2022-07-25T00:03:27.000Z,21.04
2022-07-25T00:05:55.162Z,21.01
2022-07-25T00:08:21.776Z,20.98
2022-07-25T00:10:48.298Z,21.03
2022-07-25T00:13:14.913Z,21.07
2022-07-25T00:15:41.615Z,21.04
2022-07-25T00:18:08.325Z,21.04
2022-07-25T00:20:34.877Z,21.03
2022-07-25T00:23:01.518Z,20.96
2022-07-25T00:25:28.204Z,20.89
2022-07-25T00:27:55.335Z,20.83
2022-07-25T00:30:22.173Z,20.84
2022-07-25T00:32:49.285Z,20.83
2022-07-25T00:35:15.850Z,20.82
2022-07-25T00:37:42.437Z,20.82
2022-07-25T00:40:09.409Z,20.83
2022-07-25T00:42:37.066Z,20.85
2022-07-25T00:45:04.409Z,20.78
2022-07-25T00:47:31.427Z,20.76
2022-07-25T00:49:58.247Z,20.73
2022-07-25T00:52:24.895Z,20.74
2022-07-25T00:54:51.571Z,20.75
2022-07-25T00:57:18.164Z,20.68
2022-07-25T00:59:44.941Z,20.64
2022-07-25T01:02:11.615Z,20.60
2022-07-25T01:04:38.258Z,20.61
2022-07-25T01:07:04.996Z,20.63
2022-07-25T01:09:31.554Z,20.51
2022-07-25T01:11:58.234Z,20.46
2022-07-25T01:14:24.993Z,20.38
2022-07-25T01:16:51.590Z,20.28
2022-07-25T01:19:18.589Z,20.28
2022-07-25T01:21:45.191Z,20.40
2022-07-25T01:24:11.956Z,20.45
2022-07-25T01:26:38.629Z,20.46
2022-07-25T01:29:05.417Z,20.39
2022-07-25T01:31:34.176Z,20.32
2022-07-25T01:34:00.858Z,20.42
2022-07-25T01:36:27.491Z,20.45
2022-07-25T01:38:54.382Z,20.25
2022-07-25T01:41:22.334Z,20.09
2022-07-25T01:43:49.367Z,19.97
2022-07-25T01:46:15.995Z,19.88
2022-07-25T01:48:42.715Z,19.77
2022-07-25T01:51:10.593Z,19.81
2022-07-25T01:53:37.772Z,19.68
2022-07-25T01:56:08.487Z,19.58
2022-07-25T01:58:36.982Z,19.73
2022-07-25T02:01:03.871Z,19.78
2022-07-25T02:03:30.567Z,19.69
2022-07-25T02:06:01.333Z,19.55
2022-07-25T02:08:28.034Z,19.53
2022-07-25T02:10:54.718Z,19.45
2022-07-25T02:13:21.332Z,19.44
2022-07-25T02:15:47.936Z,19.43
2022-07-25T02:18:14.811Z,19.44
2022-07-25T02:20:41.368Z,19.41
2022-07-25T02:23:08.070Z,19.37
2022-07-25T02:25:34.906Z,19.43
2022-07-25T02:28:01.589Z,19.50
2022-07-25T02:30:28.433Z,19.53
2022-07-25T02:32:55.301Z,19.51
2022-07-25T02:35:21.918Z,19.53
2022-07-25T02:37:50.651Z,19.36
2022-07-25T02:40:17.247Z,19.38
2022-07-25T02:42:43.817Z,19.38
2022-07-25T02:45:10.773Z,19.44
2022-07-25T02:47:37.582Z,19.35
2022-07-25T02:50:05.058Z,19.22
2022-07-25T02:52:31.580Z,19.10
2022-07-25T02:54:58.440Z,19.04
2022-07-25T02:57:24.957Z,19.01
2022-07-25T02:59:51.538Z,18.95
2022-07-25T03:02:18.095Z,18.95
2022-07-25T03:04:44.607Z,18.96
2022-07-25T03:07:11.272Z,18.97
2022-07-25T03:09:37.951Z,18.94
2022-07-25T03:12:04.795Z,18.86
2022-07-25T03:14:31.372Z,18.82
2022-07-25T03:16:58.186Z,18.84
2022-07-25T03:19:24.884Z,18.89
2022-07-25T03:21:51.444Z,18.91
2022-07-25T03:24:19.191Z,18.97
2022-07-25T03:26:46.121Z,18.73
2022-07-25T03:29:12.673Z,18.69
2022-07-25T03:31:39.910Z,18.64
2022-07-25T03:34:06.769Z,18.67
2022-07-25T03:36:33.789Z,18.62
2022-07-25T03:39:00.574Z,18.51
2022-07-25T03:41:33.532Z,18.48
2022-07-25T03:44:01.825Z,18.52
2022-07-25T03:46:37.369Z,18.58
2022-07-25T03:49:04.154Z,18.54
2022-07-25T03:51:30.754Z,18.58
2022-07-25T03:54:03.492Z,18.66
2022-07-25T03:56:43.376Z,18.54
2022-07-25T03:59:13.032Z,18.46
2022-07-25T04:01:40.061Z,18.52
2022-07-25T04:04:07.213Z,18.61
2022-07-25T04:06:34.239Z,18.64
2022-07-25T04:09:00.947Z,18.72
2022-07-25T04:11:29.377Z,18.67
2022-07-25T04:13:55.903Z,18.76
2022-07-25T04:16:22.926Z,18.79
2022-07-25T04:18:51.560Z,18.87
2022-07-25T04:21:18.774Z,18.81
2022-07-25T04:23:45.749Z,18.79
2022-07-25T04:26:13.003Z,18.88
2022-07-25T04:28:40.291Z,19.03
2022-07-25T04:31:09.283Z,19.08
2022-07-25T04:33:42.260Z,19.15
2022-07-25T04:36:09.295Z,19.18
2022-07-25T04:38:36.377Z,19.17
2022-07-25T04:41:03.478Z,19.21
2022-07-25T04:43:30.362Z,19.16
2022-07-25T04:45:56.995Z,19.36
2022-07-25T04:48:24.634Z,19.44
2022-07-25T04:50:51.243Z,19.45
2022-07-25T04:53:17.882Z,19.48
2022-07-25T04:55:44.457Z,19.59
2022-07-25T04:58:11.201Z,19.59
2022-07-25T05:00:37.848Z,19.67
2022-07-25T05:03:04.665Z,19.78
2022-07-25T05:05:31.372Z,19.76
2022-07-25T05:07:58.561Z,19.77
2022-07-25T05:10:26.096Z,19.93
2022-07-25T05:12:52.720Z,19.92
2022-07-25T05:15:19.702Z,20.04
2022-07-25T05:17:46.402Z,20.10
2022-07-25T05:20:13.689Z,20.24
2022-07-25T05:22:40.416Z,20.31
2022-07-25T05:25:07.595Z,20.39
2022-07-25T05:27:34.185Z,20.44
2022-07-25T05:30:00.744Z,20.54
2022-07-25T05:32:27.283Z,20.50
2022-07-25T05:34:53.842Z,20.47
2022-07-25T05:37:20.402Z,20.52
2022-07-25T05:39:46.958Z,20.64
2022-07-25T05:42:13.560Z,20.72
2022-07-25T05:44:40.422Z,20.81
2022-07-25T05:47:11.074Z,20.99
2022-07-25T05:49:38.085Z,21.16
2022-07-25T05:52:09.512Z,21.34
2022-07-25T05:54:39.236Z,21.46
2022-07-25T05:57:05.805Z,21.55
2022-07-25T05:59:32.401Z,21.65
2022-07-25T06:01:59.052Z,21.75
2022-07-25T06:04:27.393Z,21.83
2022-07-25T06:06:54.052Z,21.93
2022-07-25T06:09:21.445Z,22.00
2022-07-25T06:11:54.698Z,22.07
2022-07-25T06:14:24.730Z,22.15
2022-07-25T06:16:51.701Z,22.17
2022-07-25T06:19:18.324Z,22.15
2022-07-25T06:21:44.962Z,22.21
2022-07-25T06:24:11.614Z,22.24
2022-07-25T06:26:38.700Z,22.28
2022-07-25T06:29:05.610Z,22.36
2022-07-25T06:31:32.226Z,22.39
2022-07-25T06:33:58.865Z,22.47
2022-07-25T06:36:32.501Z,22.58
2022-07-25T06:38:59.465Z,22.62
2022-07-25T06:41:26.014Z,22.66
2022-07-25T06:43:52.583Z,22.67
2022-07-25T06:46:19.186Z,22.70
2022-07-25T06:48:45.885Z,22.81
2022-07-25T06:51:12.478Z,22.91
2022-07-25T06:53:38.968Z,22.94
2022-07-25T06:56:05.815Z,23.01
2022-07-25T06:58:32.368Z,23.02
2022-07-25T07:01:01.321Z,23.09
2022-07-25T07:03:28.314Z,23.17
2022-07-25T07:05:55.221Z,23.26
2022-07-25T07:08:21.826Z,23.34
2022-07-25T07:10:48.559Z,23.44
2022-07-25T07:13:23.916Z,23.57
2022-07-25T07:15:51.199Z,23.65
2022-07-25T07:18:18.209Z,23.73
2022-07-25T07:20:44.926Z,23.89
2022-07-25T07:23:11.559Z,23.97
2022-07-25T07:25:43.649Z,23.95
2022-07-25T07:28:10.243Z,23.99
2022-07-25T07:31:13.467Z,24.03
2022-07-25T07:33:25.118Z,24.09
2022-07-25T07:35:52.184Z,24.20
2022-07-25T07:38:18.678Z,24.16
2022-07-25T07:40:45.429Z,24.32
2022-07-25T07:43:12.034Z,24.35
2022-07-25T07:45:38.626Z,24.42
2022-07-25T07:48:06.296Z,24.53
2022-07-25T07:50:32.884Z,24.55
2022-07-25T07:53:00.097Z,24.64
2022-07-25T07:55:45.303Z,24.74
2022-07-25T07:58:12.559Z,24.79
2022-07-25T08:00:42.222Z,24.87
2022-07-25T08:03:09.109Z,24.96
2022-07-25T08:05:45.366Z,24.96
2022-07-25T08:08:12.691Z,24.98
2022-07-25T08:10:41.710Z,25.00
2022-07-25T08:13:15.324Z,25.19
2022-07-25T08:15:42.818Z,25.26
2022-07-25T08:18:17.782Z,25.35
2022-07-25T08:20:45.080Z,25.47
2022-07-25T08:23:11.849Z,25.52
2022-07-25T08:25:38.483Z,25.50
2022-07-25T08:28:06.440Z,25.49
2022-07-25T08:30:33.607Z,25.50
2022-07-25T08:33:01.193Z,25.53
2022-07-25T08:35:28.321Z,25.54
2022-07-25T08:37:55.448Z,25.62
2022-07-25T08:40:22.654Z,25.62
2022-07-25T08:42:49.431Z,25.69
2022-07-25T08:45:19.681Z,25.80
2022-07-25T08:47:47.022Z,25.95
2022-07-25T08:50:14.705Z,26.10
2022-07-25T08:52:42.883Z,26.33
2022-07-25T08:55:10.825Z,26.46
2022-07-25T08:57:38.174Z,26.63
2022-07-25T09:00:05.456Z,26.52
2022-07-25T09:02:32.096Z,26.56
2022-07-25T09:04:58.917Z,26.68
2022-07-25T09:07:32.004Z,26.81
2022-07-25T09:09:58.601Z,26.87
2022-07-25T09:12:26.227Z,26.87
2022-07-25T09:14:52.902Z,27.07
2022-07-25T09:17:22.276Z,27.25
2022-07-25T09:19:54.555Z,27.40
2022-07-25T09:22:21.230Z,27.52
2022-07-25T09:24:47.920Z,27.55
2022-07-25T09:27:15.200Z,27.55
2022-07-25T09:29:45.181Z,27.57
2022-07-25T09:32:16.115Z,27.56
2022-07-25T09:34:43.146Z,27.56
2022-07-25T09:37:12.336Z,27.60
2022-07-25T09:39:45.995Z,27.69
2022-07-25T09:42:17.542Z,27.76
2022-07-25T09:44:44.477Z,27.90
2022-07-25T09:47:11.988Z,27.92
2022-07-25T09:49:40.459Z,28.09
2022-07-25T09:52:07.042Z,28.16
2022-07-25T09:54:33.630Z,28.10
2022-07-25T09:57:00.214Z,28.06
2022-07-25T09:59:26.791Z,28.00
2022-07-25T10:02:19.617Z,28.00
2022-07-25T10:04:47.503Z,27.82
2022-07-25T10:07:14.967Z,27.86
2022-07-25T10:09:49.128Z,27.87
2022-07-25T10:12:19.032Z,27.97
2022-07-25T10:15:03.557Z,28.04
2022-07-25T10:17:30.102Z,28.09
2022-07-25T10:19:58.819Z,28.08
2022-07-25T10:22:55.343Z,28.14
2022-07-25T10:25:22.367Z,28.14
2022-07-25T10:28:03.062Z,28.16
2022-07-25T10:30:39.642Z,28.15
2022-07-25T10:33:17.767Z,28.23
2022-07-25T10:35:44.490Z,28.23
2022-07-25T10:38:11.121Z,28.23
2022-07-25T10:40:39.903Z,28.20
2022-07-25T10:43:11.713Z,28.28
2022-07-25T10:45:42.461Z,28.48
2022-07-25T10:48:10.038Z,28.58
2022-07-25T10:50:55.494Z,28.70
2022-07-25T10:53:31.154Z,28.60
2022-07-25T10:56:05.707Z,28.50
2022-07-25T10:58:48.265Z,28.52
2022-07-25T11:01:15.111Z,28.40
2022-07-25T11:03:45.143Z,28.45
2022-07-25T11:06:12.632Z,28.56
2022-07-25T11:08:39.208Z,28.66
2022-07-25T11:11:05.931Z,28.72
2022-07-25T11:13:36.817Z,28.69
2022-07-25T11:16:03.813Z,28.54
2022-07-25T11:18:37.866Z,28.55
2022-07-25T11:21:06.643Z,28.51
2022-07-25T11:23:33.930Z,28.58
2022-07-25T11:26:04.270Z,28.60
2022-07-25T11:28:37.916Z,28.63
2022-07-25T11:31:04.779Z,28.86
2022-07-25T11:33:31.293Z,28.97
2022-07-25T11:35:59.484Z,29.02
2022-07-25T11:38:26.560Z,28.99
2022-07-25T11:40:53.271Z,28.86
2022-07-25T11:43:20.306Z,28.82
2022-07-25T11:45:55.561Z,28.90
2022-07-25T11:48:22.996Z,28.90
2022-07-25T11:50:49.537Z,29.05
2022-07-25T11:53:18.474Z,29.15
2022-07-25T11:55:45.113Z,29.13
2022-07-25T11:58:13.097Z,29.20
2022-07-25T12:00:40.580Z,29.05
2022-07-25T12:03:08.682Z,29.05
2022-07-25T12:05:35.539Z,29.11
2022-07-25T12:08:12.143Z,29.33
2022-07-25T12:10:39.384Z,29.69
2022-07-25T12:13:08.083Z,29.68
2022-07-25T12:15:37.825Z,29.65
2022-07-25T12:18:04.671Z,29.61
2022-07-25T12:20:32.069Z,29.76
2022-07-25T12:23:01.136Z,29.81
2022-07-25T12:25:30.977Z,29.84
2022-07-25T12:27:58.947Z,29.81
2022-07-25T12:30:26.186Z,29.85
2022-07-25T12:32:52.853Z,29.92
2022-07-25T12:35:19.453Z,30.10
2022-07-25T12:37:46.129Z,30.23
2022-07-25T12:40:13.325Z,30.29
2022-07-25T12:42:40.003Z,30.23
2022-07-25T12:45:08.359Z,30.19
2022-07-25T12:47:35.024Z,30.42
2022-07-25T12:50:01.851Z,30.50
2022-07-25T12:52:28.566Z,30.57
2022-07-25T12:54:55.192Z,30.70
2022-07-25T12:57:21.849Z,30.73
2022-07-25T12:59:48.539Z,30.85
2022-07-25T13:02:15.143Z,30.84
2022-07-25T13:04:41.783Z,30.97
2022-07-25T13:07:08.431Z,31.09
2022-07-25T13:09:35.236Z,31.12
2022-07-25T13:12:01.774Z,31.26
2022-07-25T13:14:28.360Z,31.42
2022-07-25T13:16:55.498Z,31.69
2022-07-25T13:19:22.058Z,32.08
2022-07-25T13:21:48.716Z,32.51
2022-07-25T13:24:15.294Z,32.50
2022-07-25T13:26:41.854Z,32.68
2022-07-25T13:29:09.578Z,32.86
2022-07-25T13:31:36.535Z,33.07
2022-07-25T13:34:03.178Z,33.18
2022-07-25T13:36:29.710Z,33.50
2022-07-25T13:38:56.284Z,33.87
2022-07-25T13:41:22.854Z,34.28
2022-07-25T13:43:50.114Z,34.44
2022-07-25T13:46:16.861Z,34.61
2022-07-25T13:48:45.573Z,34.75
2022-07-25T13:51:13.411Z,34.79
2022-07-25T13:53:40.035Z,35.03
2022-07-25T13:56:07.182Z,35.20
2022-07-25T13:58:34.116Z,35.10
2022-07-25T14:01:01.423Z,34.96
2022-07-25T14:03:28.860Z,35.13
2022-07-25T14:05:55.519Z,35.11
2022-07-25T14:08:22.473Z,35.44
2022-07-25T14:10:49.320Z,36.13
2022-07-25T14:13:16.016Z,36.65
2022-07-25T14:15:42.837Z,37.00
2022-07-25T14:18:09.814Z,37.01
2022-07-25T14:20:37.001Z,37.03
2022-07-25T14:23:03.760Z,36.93
2022-07-25T14:25:30.633Z,37.27
2022-07-25T14:27:57.391Z,37.63
2022-07-25T14:30:24.268Z,37.81
2022-07-25T14:32:50.952Z,38.13
2022-07-25T14:35:17.632Z,38.23
2022-07-25T14:37:44.471Z,38.38
2022-07-25T14:40:11.811Z,38.20
2022-07-25T14:42:39.018Z,37.85
2022-07-25T14:45:06.387Z,38.36
2022-07-25T14:47:33.868Z,38.70
2022-07-25T14:50:00.838Z,39.01
2022-07-25T14:52:29.642Z,39.06
2022-07-25T14:54:59.356Z,38.92
2022-07-25T14:57:31.401Z,38.91
2022-07-25T14:59:58.476Z,39.09
2022-07-25T15:02:25.221Z,38.89
2022-07-25T15:04:51.869Z,38.72
2022-07-25T15:07:19.004Z,38.82
2022-07-25T15:09:45.726Z,38.77
2022-07-25T15:12:16.751Z,38.56
2022-07-25T15:14:44.141Z,38.71
2022-07-25T15:17:11.078Z,38.53
2022-07-25T15:19:38.351Z,38.61
2022-07-25T15:22:05.341Z,38.77
2022-07-25T15:24:50.236Z,38.65
2022-07-25T15:27:19.904Z,38.80
2022-07-25T15:29:47.974Z,38.55
2022-07-25T15:32:15.208Z,38.51
2022-07-25T15:34:41.975Z,38.45
2022-07-25T15:37:09.205Z,38.51
2022-07-25T15:39:35.965Z,38.78
2022-07-25T15:42:02.672Z,38.70
2022-07-25T15:44:33.019Z,39.38
2022-07-25T15:46:59.828Z,39.94
2022-07-25T15:49:26.697Z,41.22
2022-07-25T15:51:53.422Z,42.27
2022-07-25T15:54:20.148Z,42.55
2022-07-25T15:56:46.966Z,42.58
2022-07-25T15:59:13.672Z,43.12
2022-07-25T16:01:40.474Z,42.73
2022-07-25T16:04:07.482Z,42.24
2022-07-25T16:06:34.423Z,41.23
2022-07-25T16:09:01.110Z,39.64
2022-07-25T16:11:28.062Z,39.96
2022-07-25T16:13:54.916Z,41.21
2022-07-25T16:16:22.216Z,41.58
2022-07-25T16:18:49.046Z,40.95
2022-07-25T16:21:15.814Z,39.21
2022-07-25T16:23:45.466Z,38.77
2022-07-25T16:26:13.227Z,38.01
2022-07-25T16:28:40.688Z,37.59
2022-07-25T16:31:07.498Z,37.23
2022-07-25T16:33:34.306Z,37.02
2022-07-25T16:36:01.133Z,36.84
2022-07-25T16:38:28.985Z,36.46
2022-07-25T16:40:55.993Z,36.02
2022-07-25T16:43:22.760Z,35.87
2022-07-25T16:45:49.581Z,35.67
2022-07-25T16:48:16.417Z,35.87
2022-07-25T16:50:43.180Z,35.87
2022-07-25T16:53:09.887Z,36.09
2022-07-25T16:55:36.587Z,36.28
2022-07-25T16:58:03.270Z,36.30
2022-07-25T17:00:30.192Z,35.99
2022-07-25T17:02:56.869Z,36.06
2022-07-25T17:05:25.358Z,36.04
2022-07-25T17:07:59.290Z,35.62
2022-07-25T17:10:27.794Z,35.12
2022-07-25T17:12:55.542Z,34.72
2022-07-25T17:15:22.712Z,34.45
2022-07-25T17:17:49.463Z,34.10
2022-07-25T17:20:16.293Z,33.87
2022-07-25T17:22:42.997Z,33.56
2022-07-25T17:25:10.057Z,33.35
2022-07-25T17:27:37.318Z,33.10
2022-07-25T17:30:05.007Z,32.87
2022-07-25T17:32:31.832Z,32.61
2022-07-25T17:34:58.664Z,32.23
2022-07-25T17:37:27.805Z,32.12
2022-07-25T17:39:54.892Z,31.84
2022-07-25T17:42:24.490Z,31.63
2022-07-25T17:44:54.367Z,31.41
2022-07-25T17:47:27.615Z,31.17
2022-07-25T17:49:54.674Z,31.09
2022-07-25T17:52:21.481Z,30.97
2022-07-25T17:54:48.258Z,30.75
2022-07-25T17:57:14.933Z,30.55
2022-07-25T17:59:41.674Z,30.31
2022-07-25T18:02:08.707Z,30.11
2022-07-25T18:04:35.508Z,29.97
2022-07-25T18:07:03.190Z,29.86
2022-07-25T18:09:29.958Z,29.77
2022-07-25T18:12:00.160Z,29.66
2022-07-25T18:14:30.482Z,29.52
2022-07-25T18:16:59.327Z,29.40
2022-07-25T18:19:26.891Z,29.15
2022-07-25T18:21:53.593Z,29.08
2022-07-25T18:24:20.328Z,28.83
2022-07-25T18:26:48.795Z,28.74
2022-07-25T18:29:15.534Z,28.63
2022-07-25T18:31:42.373Z,28.59
2022-07-25T18:34:10.019Z,28.44
2022-07-25T18:36:37.204Z,28.34
2022-07-25T18:39:03.999Z,28.28
2022-07-25T18:41:30.903Z,28.25
2022-07-25T18:43:58.214Z,28.19
2022-07-25T18:46:25.618Z,28.11
2022-07-25T18:48:52.832Z,28.07
2022-07-25T18:51:20.736Z,27.99
2022-07-25T18:53:49.106Z,27.85
2022-07-25T18:56:18.961Z,27.69
2022-07-25T18:58:46.095Z,27.64
2022-07-25T19:01:12.931Z,27.57
2022-07-25T19:03:42.750Z,27.24
2022-07-25T19:06:09.890Z,27.22
2022-07-25T19:08:40.788Z,27.16
2022-07-25T19:11:09.515Z,26.85
2022-07-25T19:13:49.643Z,26.80
2022-07-25T19:16:17.847Z,26.53
2022-07-25T19:18:46.775Z,26.21
2022-07-25T19:21:14.111Z,26.17
2022-07-25T19:23:40.882Z,26.18
2022-07-25T19:26:11.011Z,26.18
2022-07-25T19:28:37.885Z,26.16
2022-07-25T19:31:04.827Z,26.24
2022-07-25T19:33:36.105Z,26.21
2022-07-25T19:36:04.198Z,26.21
2022-07-25T19:38:31.675Z,26.18
2022-07-25T19:41:02.414Z,25.84
2022-07-25T19:43:29.475Z,25.64
2022-07-25T19:45:56.487Z,25.51
2022-07-25T19:48:24.255Z,25.48
2022-07-25T19:50:52.198Z,25.45
2022-07-25T19:53:19.151Z,25.29
2022-07-25T19:55:46.062Z,25.08
2022-07-25T19:58:12.751Z,24.90
2022-07-25T20:00:39.541Z,24.68
2022-07-25T20:03:06.370Z,24.66
2022-07-25T20:05:34.866Z,24.72
2022-07-25T20:08:01.720Z,24.70
2022-07-25T20:10:28.454Z,24.70
2022-07-25T20:13:00.874Z,24.79
2022-07-25T20:15:28.668Z,24.70
2022-07-25T20:17:56.778Z,24.79
2022-07-25T20:20:23.831Z,24.73
2022-07-25T20:22:50.903Z,24.74
2022-07-25T20:25:20.464Z,24.76
2022-07-25T20:27:49.921Z,24.75
2022-07-25T20:30:19.419Z,24.76
2022-07-25T20:32:46.657Z,24.68
2022-07-25T20:35:13.659Z,24.68
2022-07-25T20:37:40.580Z,24.67
2022-07-25T20:40:08.982Z,24.21
2022-07-25T20:42:36.775Z,24.24
2022-07-25T20:45:05.150Z,24.11
2022-07-25T20:47:31.878Z,23.82
2022-07-25T20:49:58.641Z,23.79
2022-07-25T20:52:25.546Z,23.70
2022-07-25T20:54:52.227Z,23.67
2022-07-25T20:57:19.017Z,23.63
2022-07-25T20:59:45.714Z,23.57
2022-07-25T21:02:13.543Z,23.72
2022-07-25T21:04:40.262Z,23.77
2022-07-25T21:07:06.993Z,23.73
2022-07-25T21:09:33.861Z,23.54
2022-07-25T21:12:01.985Z,23.58
2022-07-25T21:14:28.886Z,23.41
2022-07-25T21:16:55.717Z,23.26
2022-07-25T21:19:22.478Z,23.06
2022-07-25T21:21:49.299Z,23.01
2022-07-25T21:24:16.678Z,22.98
2022-07-25T21:26:43.553Z,22.88
2022-07-25T21:29:10.780Z,22.78
2022-07-25T21:31:38.166Z,22.65
2022-07-25T21:34:05.163Z,22.77
2022-07-25T21:36:32.084Z,22.69
2022-07-25T21:38:58.802Z,22.42
2022-07-25T21:41:25.462Z,22.32
2022-07-25T21:43:52.203Z,22.22
2022-07-25T21:46:18.997Z,22.18
2022-07-25T21:49:04.239Z,22.00
2022-07-25T21:51:40.645Z,21.92
2022-07-25T21:54:07.956Z,21.93
2022-07-25T21:56:34.807Z,22.09
2022-07-25T21:59:01.649Z,22.03
2022-07-25T22:01:28.559Z,21.77
2022-07-25T22:03:55.464Z,21.77
2022-07-25T22:06:22.170Z,21.72
2022-07-25T22:08:48.990Z,21.90
2022-07-25T22:11:38.336Z,21.80
2022-07-25T22:14:02.810Z,21.74
2022-07-25T22:16:29.446Z,20.49
2022-07-25T22:18:57.252Z,19.80
2022-07-25T22:21:24.224Z,19.53
2022-07-25T22:23:51.065Z,19.33
2022-07-25T22:26:17.952Z,19.18
2022-07-25T22:28:44.739Z,18.98
2022-07-25T22:31:11.575Z,18.91
2022-07-25T22:33:38.875Z,18.99
2022-07-25T22:36:06.240Z,18.72
2022-07-25T22:38:33.053Z,18.79
2022-07-25T22:40:59.724Z,18.60
2022-07-25T22:43:58.058Z,18.44
2022-07-25T22:46:13.358Z,18.31
2022-07-25T22:48:42.555Z,18.11
2022-07-25T22:51:09.388Z,18.04
2022-07-25T22:53:36.039Z,17.86
2022-07-25T22:56:02.899Z,17.78
2022-07-25T22:58:29.571Z,17.70
2022-07-25T23:00:56.331Z,17.60
2022-07-25T23:03:23.370Z,17.49
2022-07-25T23:05:50.326Z,17.40
2022-07-25T23:08:20.752Z,17.35
2022-07-25T23:10:47.543Z,17.35
2022-07-25T23:13:14.325Z,17.36
2022-07-25T23:15:49.782Z,17.32
2022-07-25T23:18:17.441Z,17.37
2022-07-25T23:20:44.165Z,17.33
2022-07-25T23:23:10.882Z,17.32
2022-07-25T23:25:37.631Z,17.30
2022-07-25T23:28:04.612Z,17.21
2022-07-25T23:30:34.108Z,17.10
2022-07-25T23:33:03.432Z,17.05
2022-07-25T23:35:30.387Z,17.10
2022-07-25T23:37:57.258Z,17.12
2022-07-25T23:40:23.949Z,17.08
2022-07-25T23:42:51.091Z,17.05
2022-07-25T23:45:17.845Z,17.03
2022-07-25T23:47:45.772Z,16.95
2022-07-25T23:50:12.685Z,16.84
2022-07-25T23:52:39.602Z,16.83
2022-07-25T23:55:08.063Z,16.85
2022-07-25T23:57:35.128Z,16.81
